Time;durP1;ratioP1;P1;durP2;ratioP2;P2;SDS_P1;SDS_P2;PMS_P1;PMS_P2;Temp;Humidity;BMP_temperature;BMP_pressure;BME280_temperature;BME280_humidity;BME280_pressure;Samples;Min_cycle;Max_cycle;Signal;HPM_P1;HPM_P2
2021/09/11 00:00:37;;;;;;;8.90;5.15;;;18.40;99.90;;;;;;5032207;28;20028;-60
2021/09/11 00:03:03;;;;;;;7.13;5.75;;;18.40;99.90;;;;;;5031039;28;20439;-59
2021/09/11 00:05:29;;;;;;;10.35;5.65;;;18.30;99.90;;;;;;5032081;28;20032;-59
2021/09/11 00:07:54;;;;;;;11.27;5.78;;;18.30;99.90;;;;;;5031628;28;20038;-59
2021/09/11 00:10:21;;;;;;;8.90;5.57;;;18.30;99.90;;;;;;5036617;28;20079;-60
2021/09/11 00:12:47;;;;;;;13.30;5.20;;;18.40;99.90;;;;;;5040191;28;20033;-60
2021/09/11 00:15:15;;;;;;;13.52;5.75;;;18.40;99.90;;;;;;5031105;28;20060;-59
2021/09/11 00:17:42;;;;;;;10.93;5.93;;;18.30;99.90;;;;;;5031441;28;20071;-59
2021/09/11 00:20:09;;;;;;;9.13;5.50;;;18.30;99.90;;;;;;5031455;28;20025;-61
2021/09/11 00:22:35;;;;;;;11.98;6.18;;;18.20;99.90;;;;;;5031681;28;20383;-60
2021/09/11 00:25:00;;;;;;;11.68;5.57;;;18.20;99.90;;;;;;5031170;28;20041;-59
2021/09/11 00:27:26;;;;;;;11.80;5.88;;;18.30;99.90;;;;;;5031793;28;20040;-60
2021/09/11 00:29:52;;;;;;;9.73;5.78;;;18.20;99.90;;;;;;5030641;28;20045;-60
2021/09/11 00:32:17;;;;;;;12.02;6.15;;;18.20;99.90;;;;;;5031681;28;20053;-59
2021/09/11 00:34:43;;;;;;;10.23;6.40;;;18.20;99.90;;;;;;5030736;28;20029;-60
2021/09/11 00:37:09;;;;;;;11.02;6.47;;;18.10;99.90;;;;;;5031756;28;20459;-61
2021/09/11 00:39:35;;;;;;;13.52;6.43;;;18.00;99.90;;;;;;5030737;28;20480;-60
2021/09/11 00:42:00;;;;;;;14.95;7.03;;;18.00;99.90;;;;;;5031644;28;20622;-59
2021/09/11 00:44:26;;;;;;;11.43;6.30;;;18.10;99.90;;;;;;5030673;28;20109;-60
2021/09/11 00:46:52;;;;;;;14.25;7.15;;;18.00;99.90;;;;;;5031554;28;20416;-59
2021/09/11 00:49:17;;;;;;;13.95;7.82;;;18.10;99.90;;;;;;5030379;28;20119;-60
2021/09/11 00:51:44;;;;;;;12.50;7.32;;;18.00;99.90;;;;;;5031050;28;20045;-60
2021/09/11 00:54:10;;;;;;;12.88;7.88;;;18.00;99.90;;;;;;5030895;28;20041;-60
2021/09/11 00:56:37;;;;;;;12.82;7.43;;;17.90;99.90;;;;;;5031336;28;20037;-61
2021/09/11 00:59:03;;;;;;;12.80;7.80;;;17.90;99.90;;;;;;5030375;28;20418;-59
2021/09/11 01:01:29;;;;;;;16.52;7.85;;;17.90;99.90;;;;;;5031084;28;20087;-60
2021/09/11 01:03:55;;;;;;;12.82;7.45;;;18.00;99.90;;;;;;5030406;28;20025;-60
2021/09/11 01:06:21;;;;;;;11.43;7.43;;;18.00;99.90;;;;;;5031039;28;20045;-59
2021/09/11 01:08:48;;;;;;;15.93;9.13;;;18.00;99.90;;;;;;5030288;28;20041;-61
2021/09/11 01:11:14;;;;;;;14.10;7.90;;;18.00;99.90;;;;;;5031243;28;20026;-60
2021/09/11 01:13:40;;;;;;;15.05;8.75;;;18.10;99.90;;;;;;5030083;28;20479;-60
2021/09/11 01:16:07;;;;;;;17.13;8.63;;;18.10;99.90;;;;;;5030939;28;20387;-61
2021/09/11 01:18:34;;;;;;;14.10;8.38;;;18.10;99.90;;;;;;5030222;28;20041;-60
2021/09/11 01:21:00;;;;;;;14.85;8.35;;;18.20;99.90;;;;;;5031082;28;20100;-60
2021/09/11 01:23:27;;;;;;;15.13;8.63;;;18.20;99.90;;;;;;5030554;28;20041;-59
2021/09/11 01:25:54;;;;;;;20.40;9.52;;;18.10;99.90;;;;;;5030848;28;20025;-59
2021/09/11 01:28:20;;;;;;;18.00;9.45;;;18.10;99.90;;;;;;5030459;28;20393;-59
2021/09/11 01:30:46;;;;;;;14.85;9.50;;;18.10;99.90;;;;;;5030617;28;20064;-59
2021/09/11 01:33:12;;;;;;;17.67;9.35;;;18.20;99.90;;;;;;5030368;28;20057;-59
2021/09/11 01:35:38;;;;;;;20.88;9.68;;;18.20;99.90;;;;;;5030693;28;20033;-60
2021/09/11 01:38:05;;;;;;;14.88;9.30;;;18.30;99.90;;;;;;5030672;28;20483;-59
2021/09/11 01:40:32;;;;;;;18.52;9.02;;;18.20;99.90;;;;;;5030175;28;20049;-59
2021/09/11 01:42:57;;;;;;;16.90;9.63;;;18.20;99.90;;;;;;5030850;28;20404;-59
2021/09/11 01:45:23;;;;;;;15.38;9.18;;;18.20;99.90;;;;;;5029628;28;20037;-59
2021/09/11 01:47:51;;;;;;;14.80;9.60;;;18.20;99.90;;;;;;5033257;28;20040;-60
2021/09/11 01:50:18;;;;;;;16.20;9.30;;;18.20;99.90;;;;;;5033885;28;20105;-60
2021/09/11 01:52:45;;;;;;;20.13;9.95;;;18.20;99.90;;;;;;5034670;28;20048;-59
2021/09/11 01:55:12;;;;;;;15.25;9.68;;;18.30;99.90;;;;;;5033769;28;20030;-60
2021/09/11 01:57:39;;;;;;;17.23;10.38;;;18.20;99.90;;;;;;5034679;28;20100;-61
2021/09/11 02:00:06;;;;;;;17.17;9.55;;;18.20;99.90;;;;;;5033467;28;20034;-58
2021/09/11 02:02:32;;;;;;;20.13;10.30;;;18.20;99.90;;;;;;5034254;28;20037;-58
2021/09/11 02:04:57;;;;;;;17.10;9.32;;;18.20;99.90;;;;;;5032310;28;20033;-60
2021/09/11 02:07:23;;;;;;;16.40;10.05;;;18.20;99.90;;;;;;5034050;28;20029;-62
2021/09/11 02:09:49;;;;;;;15.27;10.00;;;18.20;99.90;;;;;;5033109;28;20041;-60
2021/09/11 02:12:14;;;;;;;15.40;9.38;;;18.20;99.90;;;;;;5034331;28;20060;-59
2021/09/11 02:14:40;;;;;;;16.20;9.27;;;18.30;99.90;;;;;;5038454;28;20532;-58
2021/09/11 02:17:06;;;;;;;18.48;9.70;;;18.30;99.90;;;;;;5043220;28;20505;-60
2021/09/11 02:19:32;;;;;;;15.88;9.73;;;18.30;99.90;;;;;;5033245;28;20021;-60
2021/09/11 02:21:58;;;;;;;16.27;8.90;;;18.30;99.90;;;;;;5034189;28;20475;-59
2021/09/11 02:24:24;;;;;;;15.20;8.82;;;18.20;99.90;;;;;;5032971;28;20108;-61
2021/09/11 02:26:50;;;;;;;16.80;9.27;;;18.20;99.90;;;;;;5034131;28;20540;-58
2021/09/11 02:29:16;;;;;;;14.40;9.73;;;18.20;99.90;;;;;;5032863;28;20053;-58
2021/09/11 02:31:41;;;;;;;15.55;9.48;;;18.30;99.90;;;;;;5033692;28;20108;-58
2021/09/11 02:34:07;;;;;;;18.75;11.23;;;18.30;99.90;;;;;;5030318;28;20376;-60
2021/09/11 02:36:33;;;;;;;18.08;10.63;;;18.30;99.90;;;;;;5033634;28;20087;-58
2021/09/11 02:38:59;;;;;;;17.05;11.13;;;18.40;99.90;;;;;;5033197;28;20048;-59
2021/09/11 02:41:25;;;;;;;18.55;11.60;;;18.30;99.90;;;;;;5033318;28;20079;-59
2021/09/11 02:43:50;;;;;;;19.95;12.20;;;18.20;99.90;;;;;;5033091;28;20663;-60
2021/09/11 02:46:16;;;;;;;23.35;12.05;;;18.20;99.90;;;;;;5033266;28;20061;-59
2021/09/11 02:48:42;;;;;;;19.40;12.13;;;18.20;99.90;;;;;;5032927;28;20438;-61
2021/09/11 02:51:07;;;;;;;18.27;11.90;;;18.10;99.90;;;;;;5033204;28;20496;-60
2021/09/11 02:53:33;;;;;;;18.52;11.77;;;18.10;99.90;;;;;;5033491;28;20029;-61
2021/09/11 02:55:59;;;;;;;18.83;12.20;;;18.10;99.90;;;;;;5032643;28;20033;-61
2021/09/11 02:58:24;;;;;;;19.92;12.00;;;18.20;99.90;;;;;;5031875;28;20025;-60
2021/09/11 03:00:53;;;;;;;19.35;12.05;;;18.20;99.90;;;;;;5032427;28;20399;-59
2021/09/11 03:03:19;;;;;;;17.35;11.18;;;18.20;99.90;;;;;;5033160;28;20108;-61
2021/09/11 03:05:44;;;;;;;18.58;11.80;;;18.20;99.90;;;;;;5032229;28;20113;-59
2021/09/11 03:08:10;;;;;;;21.67;11.85;;;18.20;99.90;;;;;;5032955;28;20037;-62
2021/09/11 03:10:36;;;;;;;18.15;12.07;;;18.20;99.90;;;;;;5032750;28;20028;-61
2021/09/11 03:13:02;;;;;;;25.08;13.23;;;18.20;99.90;;;;;;5029725;28;20478;-58
2021/09/11 03:15:28;;;;;;;22.20;12.60;;;18.10;99.90;;;;;;5032484;28;20044;-58
2021/09/11 03:17:53;;;;;;;22.05;11.90;;;18.10;99.90;;;;;;5033089;28;20033;-59
2021/09/11 03:20:19;;;;;;;21.85;11.80;;;18.10;99.90;;;;;;5030819;28;20034;-60
2021/09/11 03:22:45;;;;;;;20.63;12.40;;;18.10;99.90;;;;;;5032753;28;20026;-59
2021/09/11 03:25:12;;;;;;;20.77;12.68;;;18.10;99.90;;;;;;5032139;28;20513;-60
2021/09/11 03:27:39;;;;;;;18.35;11.77;;;18.10;99.90;;;;;;5032704;28;20061;-59
2021/09/11 03:30:06;;;;;;;19.38;11.80;;;18.20;99.90;;;;;;5031903;28;20049;-60
2021/09/11 03:32:31;;;;;;;19.05;12.18;;;18.20;99.90;;;;;;5032807;28;20034;-60
2021/09/11 03:34:57;;;;;;;19.60;12.02;;;18.20;99.90;;;;;;5031834;28;20036;-58
2021/09/11 03:37:23;;;;;;;19.42;11.95;;;18.20;99.90;;;;;;5032703;28;20025;-59
2021/09/11 03:39:48;;;;;;;21.80;12.25;;;18.10;99.90;;;;;;5031821;28;20434;-60
2021/09/11 03:42:14;;;;;;;17.63;12.10;;;18.10;99.90;;;;;;5032515;28;20103;-62
2021/09/11 03:44:40;;;;;;;21.70;12.15;;;18.10;99.90;;;;;;5031588;28;20022;-59
2021/09/11 03:47:05;;;;;;;19.30;11.93;;;18.20;99.90;;;;;;5032426;28;20048;-60
2021/09/11 03:49:31;;;;;;;18.83;11.63;;;18.20;99.90;;;;;;5031655;28;20091;-60
2021/09/11 03:51:57;;;;;;;19.35;13.15;;;18.20;99.90;;;;;;5032223;28;20021;-62
2021/09/11 03:54:22;;;;;;;26.15;12.63;;;18.10;99.90;;;;;;5031651;28;20032;-59
2021/09/11 03:56:48;;;;;;;21.50;12.02;;;18.10;99.90;;;;;;5031956;28;20104;-59
2021/09/11 03:59:14;;;;;;;26.63;13.00;;;18.10;99.90;;;;;;5039169;28;20032;-61
2021/09/11 04:01:39;;;;;;;24.33;13.32;;;18.10;99.90;;;;;;5037089;28;20025;-61
2021/09/11 04:04:05;;;;;;;20.80;12.68;;;18.10;99.90;;;;;;5030153;28;20079;-60
2021/09/11 04:06:31;;;;;;;17.65;12.07;;;18.10;99.90;;;;;;5031664;28;20228;-59
2021/09/11 04:08:56;;;;;;;18.42;11.55;;;18.20;99.90;;;;;;5027430;28;20034;-59
2021/09/11 04:11:22;;;;;;;20.60;12.55;;;18.30;99.90;;;;;;5021579;28;20033;-59
2021/09/11 04:13:48;;;;;;;22.08;12.32;;;18.20;99.90;;;;;;5031936;28;20084;-62
2021/09/11 04:16:14;;;;;;;22.13;12.73;;;18.20;99.90;;;;;;5031385;28;20029;-58
2021/09/11 04:18:39;;;;;;;21.65;12.38;;;18.20;99.90;;;;;;5031978;28;20104;-59
2021/09/11 04:21:05;;;;;;;17.83;11.70;;;18.20;99.90;;;;;;5030842;28;20025;-59
2021/09/11 04:23:30;;;;;;;17.38;12.38;;;18.10;99.90;;;;;;5032188;28;20056;-59
2021/09/11 04:25:56;;;;;;;20.40;11.95;;;18.10;99.90;;;;;;5030970;28;20090;-60
2021/09/11 04:28:22;;;;;;;22.27;12.02;;;18.20;99.90;;;;;;5031289;28;20034;-60
2021/09/11 04:30:47;;;;;;;20.38;11.82;;;18.20;99.90;;;;;;5030702;28;20025;-60
2021/09/11 04:33:13;;;;;;;21.15;11.48;;;18.10;99.90;;;;;;5031670;28;20036;-60
2021/09/11 04:35:39;;;;;;;19.05;11.23;;;18.10;99.90;;;;;;5030713;28;20029;-61
2021/09/11 04:38:04;;;;;;;18.65;11.77;;;18.10;99.90;;;;;;5031789;28;20419;-61
2021/09/11 04:40:30;;;;;;;18.65;11.27;;;18.10;99.90;;;;;;5030773;28;20084;-62
2021/09/11 04:42:56;;;;;;;18.55;11.35;;;18.10;99.90;;;;;;5031752;28;20436;-59
2021/09/11 04:45:23;;;;;;;22.20;11.68;;;18.10;99.90;;;;;;5030790;28;20029;-58
2021/09/11 04:47:49;;;;;;;18.40;11.73;;;18.10;99.90;;;;;;5031448;28;20480;-59
2021/09/11 04:50:14;;;;;;;17.60;11.55;;;18.10;99.90;;;;;;5030785;28;20041;-60
2021/09/11 04:52:40;;;;;;;17.50;11.63;;;18.10;99.90;;;;;;5031387;28;20485;-59
2021/09/11 04:55:07;;;;;;;23.02;13.70;;;18.20;99.90;;;;;;5030324;28;20112;-59
2021/09/11 04:57:34;;;;;;;21.15;12.05;;;18.20;99.90;;;;;;5031388;28;20103;-59
2021/09/11 05:00:00;;;;;;;18.23;11.73;;;18.20;99.90;;;;;;5030289;28;20036;-59
2021/09/11 05:02:25;;;;;;;19.92;11.55;;;18.20;99.90;;;;;;5030948;28;20038;-59
2021/09/11 05:04:51;;;;;;;21.17;11.05;;;18.10;99.90;;;;;;5030855;28;20033;-61
2021/09/11 05:07:17;;;;;;;18.23;11.77;;;18.10;99.90;;;;;;5031127;28;20064;-59
2021/09/11 05:09:42;;;;;;;16.83;11.13;;;18.20;99.90;;;;;;5030330;28;20045;-59
2021/09/11 05:12:08;;;;;;;18.13;11.52;;;18.20;99.90;;;;;;5030732;28;20116;-59
2021/09/11 05:14:34;;;;;;;15.32;11.13;;;18.20;99.90;;;;;;5030530;28;20468;-60
2021/09/11 05:17:00;;;;;;;20.05;11.35;;;18.20;99.90;;;;;;5031136;28;20032;-58
2021/09/11 05:19:25;;;;;;;25.40;12.02;;;18.20;99.90;;;;;;5031104;28;20033;-59
2021/09/11 05:21:51;;;;;;;22.63;11.95;;;18.20;99.90;;;;;;5031038;28;20065;-61
2021/09/11 05:24:17;;;;;;;18.38;12.15;;;18.30;99.90;;;;;;5035117;28;20045;-60
2021/09/11 05:26:44;;;;;;;23.10;12.05;;;18.30;99.90;;;;;;5034290;28;20037;-59
2021/09/11 05:29:10;;;;;;;21.17;12.00;;;18.20;99.90;;;;;;5034494;28;20140;-58
2021/09/11 05:31:35;;;;;;;19.58;12.32;;;18.30;99.90;;;;;;5034054;28;20109;-59
2021/09/11 05:34:01;;;;;;;19.10;12.00;;;18.30;99.90;;;;;;5034912;28;20486;-58
2021/09/11 05:36:27;;;;;;;21.83;12.27;;;18.20;99.90;;;;;;5034269;28;20108;-59
2021/09/11 05:38:53;;;;;;;20.10;13.07;;;18.20;99.90;;;;;;5034997;28;20109;-60
2021/09/11 05:41:18;;;;;;;27.38;12.68;;;18.20;99.90;;;;;;5033946;28;20430;-60
2021/09/11 05:43:44;;;;;;;22.73;13.32;;;18.30;99.90;;;;;;5034999;28;20104;-59
2021/09/11 05:46:10;;;;;;;21.85;13.15;;;18.30;99.90;;;;;;5033775;28;20041;-59
2021/09/11 05:48:35;;;;;;;22.33;12.60;;;18.20;99.90;;;;;;5034735;28;20037;-59
2021/09/11 05:51:02;;;;;;;20.02;12.77;;;18.30;99.90;;;;;;5033939;28;20076;-60
2021/09/11 05:53:28;;;;;;;21.38;13.00;;;18.30;99.90;;;;;;5034667;28;20065;-58
2021/09/11 05:55:54;;;;;;;22.20;13.15;;;18.30;99.90;;;;;;5033743;28;20060;-58
2021/09/11 05:58:23;;;;;;;24.45;13.20;;;18.30;99.90;;;;;;5034702;28;20030;-59
2021/09/11 06:00:50;;;;;;;23.90;13.20;;;18.30;99.90;;;;;;5033475;28;20033;-58
2021/09/11 06:03:16;;;;;;;23.08;13.30;;;18.20;99.90;;;;;;5034450;28;20025;-61
2021/09/11 06:05:41;;;;;;;27.30;14.13;;;18.30;99.90;;;;;;5033540;28;20027;-62
2021/09/11 06:08:07;;;;;;;24.83;13.07;;;18.20;99.90;;;;;;5033782;28;20044;-61
2021/09/11 06:10:33;;;;;;;25.65;13.50;;;18.20;99.90;;;;;;5033504;28;20479;-60
2021/09/11 06:13:02;;;;;;;22.98;13.68;;;18.20;99.90;;;;;;5034672;28;20056;-60
2021/09/11 06:15:28;;;;;;;24.80;13.35;;;18.20;99.90;;;;;;5033313;28;20029;-59
2021/09/11 06:17:53;;;;;;;24.65;13.23;;;18.20;99.90;;;;;;5034342;28;20368;-59
2021/09/11 06:20:19;;;;;;;26.85;14.35;;;18.30;99.90;;;;;;5033601;28;20397;-59
2021/09/11 06:22:45;;;;;;;19.83;13.57;;;18.30;99.90;;;;;;5033660;28;20033;-60
2021/09/11 06:25:13;;;;;;;24.00;14.75;;;18.20;99.90;;;;;;5033583;28;20038;-59
2021/09/11 06:27:40;;;;;;;27.80;14.43;;;18.20;99.90;;;;;;5033925;28;20029;-61
2021/09/11 06:30:07;;;;;;;26.77;13.50;;;18.30;99.90;;;;;;5033614;28;20074;-60
2021/09/11 06:32:33;;;;;;;19.33;12.70;;;18.20;99.90;;;;;;5032964;28;20502;-59
2021/09/11 06:34:59;;;;;;;23.23;12.98;;;18.20;99.90;;;;;;5034146;28;20037;-59
2021/09/11 06:37:24;;;;;;;24.05;13.32;;;18.30;99.90;;;;;;5032998;28;20420;-61
2021/09/11 06:39:50;;;;;;;25.65;13.43;;;18.20;99.90;;;;;;5033599;28;20372;-59
2021/09/11 06:42:19;;;;;;;24.20;12.43;;;18.40;99.90;;;;;;5032850;28;20052;-61
2021/09/11 06:44:45;;;;;;;25.13;12.63;;;18.40;99.90;;;;;;5033408;28;20038;-59
2021/09/11 06:47:10;;;;;;;22.23;12.77;;;18.40;99.90;;;;;;5033306;28;20043;-58
2021/09/11 06:49:36;;;;;;;28.23;13.52;;;18.30;99.90;;;;;;5032095;28;20480;-59
2021/09/11 06:52:02;;;;;;;27.60;13.10;;;18.30;99.90;;;;;;5032626;28;20033;-59
2021/09/11 06:54:28;;;;;;;21.33;12.18;;;18.40;99.90;;;;;;5033184;28;20029;-60
2021/09/11 06:56:53;;;;;;;27.75;12.65;;;18.40;99.90;;;;;;5032878;28;20032;-58
2021/09/11 06:59:19;;;;;;;28.85;13.35;;;18.50;99.90;;;;;;5033722;28;20057;-58
2021/09/11 07:01:45;;;;;;;25.13;12.13;;;18.50;99.90;;;;;;5032123;28;20044;-61
2021/09/11 07:04:10;;;;;;;24.00;12.82;;;18.50;99.90;;;;;;5033221;28;20041;-60
2021/09/11 07:06:36;;;;;;;23.98;11.93;;;18.60;99.90;;;;;;5032458;28;20037;-60
2021/09/11 07:09:02;;;;;;;21.48;11.65;;;18.50;99.90;;;;;;5033124;28;20048;-60
2021/09/11 07:11:27;;;;;;;24.90;11.95;;;18.60;99.90;;;;;;5032167;28;20025;-61
2021/09/11 07:13:53;;;;;;;24.58;11.48;;;18.60;99.90;;;;;;5033249;28;20068;-59
2021/09/11 07:16:19;;;;;;;27.95;11.48;;;18.70;99.90;;;;;;5032335;28;20168;-60
2021/09/11 07:18:44;;;;;;;27.70;11.55;;;18.70;99.90;;;;;;5032868;28;20022;-59
2021/09/11 07:21:10;;;;;;;24.10;11.50;;;18.70;99.90;;;;;;5032067;28;20045;-61
2021/09/11 07:23:36;;;;;;;25.65;11.40;;;18.70;99.90;;;;;;5032932;28;20029;-62
2021/09/11 07:26:02;;;;;;;21.50;10.88;;;18.70;99.90;;;;;;5031856;28;20030;-58
2021/09/11 07:28:28;;;;;;;25.45;11.35;;;18.80;99.90;;;;;;5032806;28;20049;-59
2021/09/11 07:30:54;;;;;;;20.60;10.60;;;18.80;99.90;;;;;;5031847;28;20067;-62
2021/09/11 07:33:19;;;;;;;20.05;10.73;;;18.80;99.90;;;;;;5032652;28;20056;-60
2021/09/11 07:35:45;;;;;;;20.60;11.25;;;18.90;99.90;;;;;;5031778;28;20048;-60
2021/09/11 07:38:13;;;;;;;20.35;11.50;;;18.90;99.90;;;;;;5032503;28;20037;-62
2021/09/11 07:40:38;;;;;;;15.75;10.25;;;18.90;99.90;;;;;;5032018;28;20052;-60
2021/09/11 07:43:05;;;;;;;23.73;10.70;;;19.00;99.90;;;;;;5032023;28;20056;-60
2021/09/11 07:45:30;;;;;;;18.00;10.05;;;19.00;99.90;;;;;;5032036;28;20064;-60
2021/09/11 07:47:56;;;;;;;18.70;10.45;;;19.00;99.90;;;;;;5031658;28;20026;-59
2021/09/11 07:50:26;;;;;;;21.50;10.63;;;19.10;99.90;;;;;;5032364;28;20071;-62
2021/09/11 07:52:53;;;;;;;20.30;10.30;;;19.10;99.90;;;;;;5031327;28;20033;-61
2021/09/11 07:55:18;;;;;;;20.15;9.98;;;19.10;99.90;;;;;;5032603;28;20025;-59
2021/09/11 07:57:44;;;;;;;19.60;9.50;;;19.10;99.90;;;;;;5031386;28;20039;-60
2021/09/11 08:00:11;;;;;;;20.55;10.32;;;19.00;99.90;;;;;;5030356;28;20038;-59
2021/09/11 08:02:36;;;;;;;16.50;9.10;;;19.10;99.90;;;;;;5031218;28;20065;-60
2021/09/11 08:05:02;;;;;;;17.73;9.43;;;19.10;99.90;;;;;;5030878;28;20084;-60
2021/09/11 08:07:28;;;;;;;22.27;10.05;;;19.10;99.90;;;;;;5031440;28;20428;-60
2021/09/11 08:09:54;;;;;;;15.65;8.68;;;19.10;99.90;;;;;;5031765;28;20040;-60
2021/09/11 08:12:21;;;;;;;20.83;9.25;;;19.10;99.90;;;;;;5031315;28;20103;-60
2021/09/11 08:14:47;;;;;;;16.73;8.98;;;19.20;99.90;;;;;;5032077;28;20061;-59
2021/09/11 08:17:12;;;;;;;15.57;9.23;;;19.10;99.90;;;;;;5031036;28;20029;-60
2021/09/11 08:19:38;;;;;;;21.38;8.65;;;19.10;99.90;;;;;;5031818;28;20036;-60
2021/09/11 08:22:04;;;;;;;13.10;8.73;;;19.20;99.90;;;;;;5031234;28;20037;-60
2021/09/11 08:24:30;;;;;;;15.05;9.35;;;19.30;99.90;;;;;;5031617;28;20032;-61
2021/09/11 08:26:55;;;;;;;15.90;8.95;;;19.30;99.90;;;;;;5031116;28;20038;-61
2021/09/11 08:29:21;;;;;;;15.77;8.40;;;19.30;99.90;;;;;;5031378;28;20492;-60
2021/09/11 08:31:47;;;;;;;12.13;8.35;;;19.30;99.90;;;;;;5030580;28;20438;-60
2021/09/11 08:34:13;;;;;;;15.73;7.85;;;19.30;99.90;;;;;;5031248;28;20487;-61
2021/09/11 08:36:38;;;;;;;12.40;7.85;;;19.30;99.90;;;;;;5031067;28;20103;-59
2021/09/11 08:39:04;;;;;;;19.17;8.63;;;19.30;99.90;;;;;;5031492;28;20104;-61
2021/09/11 08:41:31;;;;;;;15.57;8.55;;;19.40;99.90;;;;;;5030493;28;20025;-59
2021/09/11 08:43:59;;;;;;;17.40;8.20;;;19.40;99.90;;;;;;5031614;28;20037;-61
2021/09/11 08:46:27;;;;;;;18.23;8.05;;;19.40;99.90;;;;;;5028801;28;20091;-60
2021/09/11 08:48:53;;;;;;;17.73;8.05;;;19.50;99.90;;;;;;5031343;28;20049;-60
2021/09/11 08:51:19;;;;;;;19.33;8.48;;;19.60;99.90;;;;;;5030548;28;20487;-61
2021/09/11 08:53:45;;;;;;;11.88;7.68;;;19.70;99.90;;;;;;5030749;28;20455;-59
2021/09/11 08:56:11;;;;;;;20.92;8.48;;;19.60;99.90;;;;;;5030372;28;20037;-60
2021/09/11 08:58:37;;;;;;;13.40;7.93;;;19.60;99.90;;;;;;5031094;28;20033;-61
2021/09/11 09:01:03;;;;;;;18.35;8.13;;;19.70;99.90;;;;;;5030618;28;20037;-60
2021/09/11 09:03:35;;;;;;;18.02;8.00;;;19.80;99.90;;;;;;5030656;28;20491;-60
2021/09/11 09:06:23;;;;;;;13.32;7.70;;;19.80;99.90;;;;;;5031135;28;20033;-60
2021/09/11 09:09:12;;;;;;;16.20;7.85;;;19.90;99.90;;;;;;5030810;28;20037;-60
2021/09/11 09:11:39;;;;;;;14.95;7.85;;;19.90;99.90;;;;;;5045466;28;20038;-61
2021/09/11 09:14:12;;;;;;;11.65;7.43;;;19.90;99.90;;;;;;5030806;28;20534;-60
2021/09/11 09:16:40;;;;;;;14.77;7.60;;;19.90;99.90;;;;;;5030074;28;20072;-60
2021/09/11 09:19:19;;;;;;;12.25;7.25;;;20.00;99.90;;;;;;5038134;28;20025;-60
2021/09/11 09:21:47;;;;;;;15.00;7.30;;;20.10;99.90;;;;;;5034921;28;20026;-61
2021/09/11 09:24:26;;;;;;;13.70;7.13;;;20.20;99.90;;;;;;5030842;28;20042;-60
2021/09/11 09:26:58;;;;;;;12.80;6.82;;;20.20;99.90;;;;;;5030245;28;20029;-61
2021/09/11 09:29:24;;;;;;;16.75;7.20;;;20.40;99.90;;;;;;5034347;28;20128;-61
2021/09/11 09:31:56;;;;;;;11.98;7.13;;;20.40;99.90;;;;;;5040155;28;20152;-61
2021/09/11 09:34:39;;;;;;;12.95;6.53;;;20.40;99.90;;;;;;5044604;28;20032;-59
2021/09/11 09:37:12;;;;;;;11.13;6.75;;;20.60;99.90;;;;;;5030025;28;20375;-61
2021/09/11 09:39:45;;;;;;;11.02;6.80;;;20.80;99.90;;;;;;5030731;28;20052;-59
2021/09/11 09:42:13;;;;;;;15.68;6.93;;;20.90;99.90;;;;;;5030477;28;20038;-60
2021/09/11 09:44:50;;;;;;;14.10;6.50;;;20.90;99.90;;;;;;5030612;28;20040;-59
2021/09/11 09:47:18;;;;;;;11.63;6.28;;;20.90;99.90;;;;;;5030329;28;20034;-61
2021/09/11 09:50:05;;;;;;;13.48;6.85;;;20.90;99.90;;;;;;5030474;28;20037;-61
2021/09/11 09:52:32;;;;;;;11.65;6.47;;;20.90;99.90;;;;;;5029632;28;20064;-60
2021/09/11 09:54:59;;;;;;;10.82;6.25;;;20.90;99.90;;;;;;5030476;28;20037;-60
2021/09/11 09:57:24;;;;;;;10.23;5.88;;;21.00;99.90;;;;;;5029358;28;20056;-61
2021/09/11 09:59:50;;;;;;;9.77;6.03;;;21.00;99.90;;;;;;5030393;28;20492;-61
2021/09/11 10:02:16;;;;;;;9.40;5.68;;;21.10;99.90;;;;;;5029502;28;20110;-60
2021/09/11 10:04:42;;;;;;;11.85;5.70;;;21.10;99.90;;;;;;5030283;28;20104;-62
2021/09/11 10:07:09;;;;;;;12.20;6.25;;;21.10;99.90;;;;;;5029809;28;20029;-62
2021/09/11 10:09:36;;;;;;;12.30;6.03;;;21.20;99.90;;;;;;5033791;28;20391;-59
2021/09/11 10:12:02;;;;;;;12.02;7.07;;;21.20;99.90;;;;;;5033366;28;20053;-62
2021/09/11 10:14:33;;;;;;;9.05;5.90;;;21.20;99.90;;;;;;5033720;28;20037;-60
2021/09/11 10:17:04;;;;;;;14.32;6.82;;;21.30;99.90;;;;;;5033460;28;20049;-62
2021/09/11 10:19:32;;;;;;;10.07;6.38;;;21.40;99.90;;;;;;5034102;28;20029;-60
2021/09/11 10:22:18;;;;;;;13.60;5.85;;;21.50;99.90;;;;;;5033391;28;20106;-61
2021/09/11 10:24:58;;;;;;;10.77;6.00;;;21.50;99.90;;;;;;5033737;28;20038;-58
2021/09/11 10:27:31;;;;;;;10.35;5.80;;;21.50;99.90;;;;;;5048136;28;20410;-58
2021/09/11 10:29:58;;;;;;;10.63;6.30;;;21.50;99.90;;;;;;5033831;28;20053;-58
2021/09/11 10:32:34;;;;;;;13.52;6.45;;;21.60;99.90;;;;;;5032491;28;20541;-60
2021/09/11 10:35:01;;;;;;;8.02;5.97;;;21.70;99.90;;;;;;5033554;28;20116;-61
2021/09/11 10:37:33;;;;;;;10.32;5.88;;;21.80;99.90;;;;;;5032709;28;20041;-58
2021/09/11 10:40:26;;;;;;;9.82;5.68;;;22.00;99.90;;;;;;5033643;28;20071;-61
2021/09/11 10:43:12;;;;;;;19.77;8.35;;;22.30;99.90;;;;;;5032564;28;20040;-61
2021/09/11 10:45:55;;;;;;;10.23;5.38;;;22.30;99.90;;;;;;5029609;28;20041;-60
2021/09/11 10:48:32;;;;;;;8.88;5.53;;;22.40;99.90;;;;;;5032951;28;20048;-60
2021/09/11 10:51:16;;;;;;;11.25;5.32;;;22.40;99.90;;;;;;5033335;28;20037;-59
2021/09/11 10:53:57;;;;;;;9.85;5.50;;;22.40;99.90;;;;;;5020541;28;20561;-60
2021/09/11 10:56:24;;;;;;;10.50;5.60;;;22.30;99.90;;;;;;5033048;28;20033;-60
2021/09/11 10:59:15;;;;;;;14.30;6.80;;;22.30;99.90;;;;;;5032402;28;20021;-59
2021/09/11 11:01:55;;;;;;;12.15;5.55;;;22.30;99.90;;;;;;5029948;28;20506;-59
2021/09/11 11:04:31;;;;;;;10.75;5.22;;;22.60;99.90;;;;;;5032793;28;20044;-59
2021/09/11 11:07:08;;;;;;;7.38;4.82;;;22.80;99.90;;;;;;5032215;28;20029;-60
2021/09/11 11:09:37;;;;;;;8.40;4.95;;;22.80;99.90;;;;;;5032856;28;20527;-59
2021/09/11 11:12:04;;;;;;;7.25;5.45;;;22.70;99.90;;;;;;5032311;28;20033;-60
2021/09/11 11:14:32;;;;;;;9.88;5.05;;;22.70;99.90;;;;;;5048041;28;20369;-60
2021/09/11 11:16:58;;;;;;;12.52;5.50;;;22.60;99.90;;;;;;5032456;28;20384;-59
2021/09/11 11:19:29;;;;;;;9.00;5.05;;;22.70;99.90;;;;;;5031511;28;20029;-60
2021/09/11 11:22:08;;;;;;;10.13;5.85;;;22.60;99.90;;;;;;5032909;28;20026;-61
2021/09/11 11:24:36;;;;;;;64.85;45.67;;;22.50;99.90;;;;;;5019188;28;20052;-58
2021/09/11 11:27:14;;;;;;;10.43;5.28;;;22.40;99.90;;;;;;5032179;28;20545;-60
2021/09/11 11:29:43;;;;;;;10.02;5.05;;;22.40;99.90;;;;;;5024692;28;20053;-60
2021/09/11 11:32:08;;;;;;;11.63;5.80;;;22.50;99.90;;;;;;5031846;28;20033;-60
2021/09/11 11:34:36;;;;;;;9.88;5.15;;;22.60;99.90;;;;;;5032236;28;20040;-62
2021/09/11 11:37:04;;;;;;;8.32;5.38;;;22.70;99.90;;;;;;5032733;28;20340;-61
2021/09/11 11:39:32;;;;;;;8.63;4.95;;;22.70;99.90;;;;;;5031847;28;20506;-60
2021/09/11 11:42:03;;;;;;;13.70;5.50;;;22.50;99.90;;;;;;5032634;28;20459;-59
2021/09/11 11:44:30;;;;;;;12.50;6.28;;;22.40;99.90;;;;;;5031663;28;20052;-61
2021/09/11 11:47:17;;;;;;;11.18;5.53;;;22.40;99.90;;;;;;5032410;28;20045;-60
2021/09/11 11:49:43;;;;;;;13.07;5.25;;;22.30;99.90;;;;;;5031691;28;20037;-60
2021/09/11 11:52:12;;;;;;;12.43;5.25;;;22.50;99.90;;;;;;5032076;28;20038;-60
2021/09/11 11:54:38;;;;;;;9.80;6.10;;;22.70;99.90;;;;;;5031712;28;20036;-60
2021/09/11 11:57:30;;;;;;;10.45;5.18;;;22.80;99.90;;;;;;5032232;28;20029;-61
2021/09/11 12:00:22;;;;;;;7.78;5.00;;;22.90;99.90;;;;;;5029141;28;20400;-58
2021/09/11 12:02:49;;;;;;;8.05;5.25;;;22.80;99.90;;;;;;5030046;28;20054;-59
2021/09/11 12:05:25;;;;;;;11.52;6.07;;;22.70;99.90;;;;;;5031981;28;20080;-59
2021/09/11 12:07:58;;;;;;;11.57;5.00;;;22.70;99.90;;;;;;5031117;28;20033;-58
2021/09/11 12:10:27;;;;;;;12.10;5.85;;;22.60;99.90;;;;;;5031685;28;20136;-60
2021/09/11 12:12:56;;;;;;;8.63;4.95;;;22.60;99.90;;;;;;5031009;28;20483;-60
2021/09/11 12:15:25;;;;;;;9.23;4.80;;;22.70;99.90;;;;;;5031759;28;20033;-59
2021/09/11 12:18:11;;;;;;;8.73;5.00;;;22.90;99.90;;;;;;5031135;28;20053;-60
2021/09/11 12:20:52;;;;;;;10.23;4.90;;;23.00;99.90;;;;;;5031255;28;20029;-60
2021/09/11 12:23:28;;;;;;;7.70;4.30;;;23.00;99.90;;;;;;5031111;28;20022;-60
2021/09/11 12:25:59;;;;;;;8.38;4.90;;;23.00;99.90;;;;;;5031251;28;20025;-59
2021/09/11 12:28:44;;;;;;;8.98;4.45;;;23.10;99.90;;;;;;5030367;28;20037;-58
2021/09/11 12:31:16;;;;;;;7.85;5.05;;;23.10;99.90;;;;;;5030936;28;20022;-60
2021/09/11 12:33:50;;;;;;;6.60;4.75;;;23.10;99.90;;;;;;5030708;28;20037;-58
2021/09/11 12:36:41;;;;;;;8.45;5.38;;;23.20;99.90;;;;;;5031288;28;20037;-59